KDIK

Dickinson - Theodore Roosevelt Regional Airport

Dickinson, North Dakota, USA
METAR KDIK 122056Z AUTO 27011KT 10SM FEW060 OVC070 07/01 A2951 RMK AO2 SLP011 60000 T00720011 53009
Observed Flight Rules
Dec-12 @ 20:56 UTC (an hour ago) Visual Flight Rules
Wind Visibility Clouds
270° at 11 knots 10 miles
  • Few at 6,000' AGL
  • Overcast at 7,000' AGL
Temperatures Readings
Current 7°C / 45°F
Dewpoint 1°C / 34°F
Humidity 66%
Altimeter 29.51" Hg
Pressure 1001.1 hPa
Elevation 788
METAR KDIK 122056Z AUTO 27011KT 10SM FEW060 OVC070 07/01 A2951 RMK AO2 SLP011 60000 T00720011 53009
Observed Flight Rules
Dec-12 @ 20:56 UTC
(an hour ago)
VFR
Wind Visibility
270° at 11 knots 10 miles
Clouds
  • Few at 6,000' AGL
  • Overcast at 7,000' AGL
Temperature Dewpoint
7°C / 45°F 1°C / 34°F
Humidity Altimeter Pressure
66% 29.51" Hg 1001.1 hPa